Time;durP1;ratioP1;P1;durP2;ratioP2;P2;SDS_P1;SDS_P2;PMS_P1;PMS_P2;Temp;Humidity;BMP_temperature;BMP_pressure;BME280_temperature;BME280_humidity;BME280_pressure;Samples;Min_cycle;Max_cycle;Signal;HPM_P1;HPM_P2
2021/05/30 00:00:14;;;;;;;15.90;12.93;;;13.10;76.40;;;;;;4996649;28;20044;-79
2021/05/30 00:02:40;;;;;;;15.48;13.13;;;13.10;76.80;;;;;;5013343;28;20083;-79
2021/05/30 00:05:07;;;;;;;15.88;12.02;;;13.00;76.90;;;;;;5012162;28;20418;-82
2021/05/30 00:07:33;;;;;;;16.67;13.07;;;13.10;76.90;;;;;;5013117;28;20092;-79
2021/05/30 00:09:59;;;;;;;14.73;12.97;;;12.90;77.00;;;;;;5012986;28;20468;-79
2021/05/30 00:12:25;;;;;;;15.60;13.20;;;12.70;77.40;;;;;;4995644;28;20268;-79
2021/05/30 00:14:50;;;;;;;16.17;13.00;;;12.70;77.70;;;;;;4996801;28;20073;-79
2021/05/30 00:17:16;;;;;;;19.07;14.17;;;12.70;77.90;;;;;;5013612;28;20053;-78
2021/05/30 00:19:43;;;;;;;16.67;13.57;;;12.60;78.00;;;;;;4996455;28;20393;-78
2021/05/30 00:22:09;;;;;;;17.50;13.20;;;12.60;78.40;;;;;;5013900;28;20067;-81
2021/05/30 00:24:36;;;;;;;17.70;12.87;;;12.40;78.60;;;;;;5012694;28;20045;-79
2021/05/30 00:27:02;;;;;;;17.17;13.50;;;12.30;78.80;;;;;;4993276;28;20093;-78
2021/05/30 00:29:28;;;;;;;17.63;12.73;;;12.30;79.10;;;;;;4992475;28;20054;-78
2021/05/30 00:31:54;;;;;;;15.73;13.77;;;12.30;79.30;;;;;;4993277;28;20061;-78
2021/05/30 00:34:20;;;;;;;16.47;13.17;;;12.30;79.40;;;;;;4976121;28;20494;-78
2021/05/30 00:36:46;;;;;;;18.03;13.97;;;12.30;79.40;;;;;;4993087;28;20034;-78
2021/05/30 00:39:11;;;;;;;17.93;14.67;;;12.20;79.50;;;;;;5011391;28;20096;-80
2021/05/30 00:41:37;;;;;;;16.67;13.70;;;12.10;79.80;;;;;;5013815;28;20022;-79
2021/05/30 00:44:27;;;;;;;16.03;13.00;;;12.00;80.00;;;;;;5013659;28;20042;-79
2021/05/30 00:46:54;;;;;;;15.23;12.87;;;11.90;80.30;;;;;;4996008;28;20037;-79
2021/05/30 00:49:20;;;;;;;17.27;12.67;;;11.90;80.50;;;;;;5011798;28;20037;-78
2021/05/30 00:51:46;;;;;;;18.33;12.90;;;11.90;80.70;;;;;;5013492;28;20105;-78
2021/05/30 00:54:13;;;;;;;16.03;12.30;;;12.00;80.70;;;;;;5012024;28;20120;-80
2021/05/30 00:56:42;;;;;;;14.17;11.30;;;12.00;80.60;;;;;;5012483;28;20064;-78
2021/05/30 00:59:12;;;;;;;15.30;12.47;;;12.00;80.70;;;;;;5010732;28;20034;-78
2021/05/30 01:01:38;;;;;;;15.70;12.03;;;11.90;80.80;;;;;;5012843;28;20026;-78
2021/05/30 01:04:04;;;;;;;13.23;11.57;;;11.80;81.10;;;;;;5011846;28;20030;-79
2021/05/30 01:06:30;;;;;;;14.97;12.23;;;11.70;81.50;;;;;;5011040;28;20543;-79
2021/05/30 01:08:58;;;;;;;16.10;13.63;;;11.60;81.80;;;;;;5010938;28;20033;-78
2021/05/30 01:11:24;;;;;;;16.80;12.80;;;11.40;82.10;;;;;;5011277;28;20036;-78
2021/05/30 01:13:52;;;;;;;15.63;12.47;;;11.40;82.30;;;;;;5012009;28;20065;-78
2021/05/30 01:16:19;;;;;;;16.83;12.87;;;11.30;82.60;;;;;;5011110;28;20034;-81
2021/05/30 01:18:48;;;;;;;16.00;13.00;;;11.30;82.80;;;;;;5011783;28;20034;-79
2021/05/30 01:21:14;;;;;;;19.10;13.00;;;11.20;83.00;;;;;;5011349;28;20053;-78
2021/05/30 01:23:39;;;;;;;18.60;13.37;;;11.10;83.40;;;;;;5011141;28;20061;-79
2021/05/30 01:26:05;;;;;;;18.10;13.17;;;11.10;83.70;;;;;;4995567;28;20073;-78
2021/05/30 01:28:31;;;;;;;17.40;12.63;;;11.00;83.80;;;;;;4989561;28;20378;-79
2021/05/30 01:30:56;;;;;;;15.80;12.73;;;11.20;83.80;;;;;;4992340;28;20507;-79
2021/05/30 01:33:22;;;;;;;14.47;11.60;;;11.20;83.70;;;;;;5011909;28;20033;-78
2021/05/30 01:35:48;;;;;;;14.80;11.37;;;11.20;83.70;;;;;;4995124;28;20041;-79
2021/05/30 01:38:14;;;;;;;16.37;12.30;;;11.30;83.70;;;;;;5011475;28;20038;-78
2021/05/30 01:40:41;;;;;;;17.40;11.60;;;11.30;83.40;;;;;;5012060;28;20591;-78
2021/05/30 01:43:07;;;;;;;14.60;11.87;;;11.30;83.30;;;;;;5010807;28;20200;-78
2021/05/30 01:45:34;;;;;;;13.60;11.90;;;11.30;83.30;;;;;;5010173;28;20120;-78
2021/05/30 01:48:01;;;;;;;16.50;12.07;;;11.40;83.40;;;;;;4995105;28;20200;-78
2021/05/30 01:50:29;;;;;;;17.10;12.87;;;11.40;83.30;;;;;;5010214;28;20017;-78
2021/05/30 01:52:57;;;;;;;14.80;11.83;;;11.30;83.20;;;;;;5011211;28;20128;-77
2021/05/30 01:57:51;;;;;;;13.40;11.63;;;11.30;83.60;;;;;;5012358;28;20041;-78
2021/05/30 02:00:17;;;;;;;16.13;12.03;;;11.30;83.70;;;;;;5010800;28;20041;-79
2021/05/30 02:02:46;;;;;;;17.93;12.63;;;11.20;83.70;;;;;;4994131;28;20033;-79
2021/05/30 02:05:12;;;;;;;17.43;13.83;;;11.20;83.90;;;;;;5012216;28;20049;-79
2021/05/30 02:07:39;;;;;;;18.53;13.63;;;11.10;84.00;;;;;;5009746;28;20084;-79
2021/05/30 02:10:06;;;;;;;17.40;13.27;;;11.00;84.20;;;;;;5010775;28;20034;-78
2021/05/30 02:12:34;;;;;;;20.37;14.60;;;11.00;84.40;;;;;;5009888;28;20478;-79
2021/05/30 02:15:00;;;;;;;18.17;14.93;;;10.90;84.60;;;;;;5010693;28;20037;-79
2021/05/30 02:17:26;;;;;;;17.97;13.33;;;10.80;84.80;;;;;;4993285;28;20137;-80
2021/05/30 02:19:52;;;;;;;18.60;13.40;;;10.80;84.90;;;;;;5009797;28;20038;-78
2021/05/30 02:22:18;;;;;;;18.47;12.93;;;10.90;85.10;;;;;;5010509;28;20038;-78
2021/05/30 02:24:45;;;;;;;17.93;14.17;;;11.00;84.80;;;;;;5009669;28;20157;-78
2021/05/30 02:27:12;;;;;;;19.70;15.10;;;11.00;84.60;;;;;;5010256;28;20141;-79
2021/05/30 02:29:40;;;;;;;16.90;13.67;;;10.80;84.70;;;;;;5009357;28;20050;-79
2021/05/30 02:32:08;;;;;;;16.50;13.17;;;10.70;85.00;;;;;;5010596;28;20092;-78
2021/05/30 02:34:34;;;;;;;17.37;14.17;;;10.80;85.20;;;;;;5009709;28;20029;-79
2021/05/30 02:37:02;;;;;;;19.47;14.20;;;10.70;85.10;;;;;;4990622;28;20057;-79
2021/05/30 02:39:27;;;;;;;16.37;12.73;;;10.70;85.10;;;;;;5006669;28;20029;-81
2021/05/30 02:41:53;;;;;;;17.87;13.27;;;10.70;85.60;;;;;;5010015;28;20045;-78
2021/05/30 02:44:19;;;;;;;15.83;12.50;;;10.70;85.10;;;;;;5011036;28;20087;-78
2021/05/30 02:46:44;;;;;;;19.17;14.57;;;10.80;85.30;;;;;;5011312;28;20121;-78
2021/05/30 02:49:10;;;;;;;16.63;14.37;;;10.70;85.10;;;;;;5010601;28;20061;-79
2021/05/30 02:51:36;;;;;;;19.97;14.93;;;10.60;85.20;;;;;;5009526;28;20042;-78
2021/05/30 02:54:02;;;;;;;23.57;16.87;;;10.60;85.40;;;;;;4994237;28;20028;-77
2021/05/30 02:56:28;;;;;;;20.17;15.60;;;10.50;85.60;;;;;;4993907;28;20025;-81
2021/05/30 02:58:54;;;;;;;21.53;16.57;;;10.50;85.70;;;;;;4995249;28;20084;-79
2021/05/30 03:01:20;;;;;;;22.13;17.07;;;10.40;85.80;;;;;;4993814;28;20022;-79
2021/05/30 03:03:47;;;;;;;19.90;15.53;;;10.40;85.90;;;;;;5010875;28;20101;-79
2021/05/30 03:06:13;;;;;;;17.30;14.77;;;10.30;86.00;;;;;;4989973;28;20031;-79
2021/05/30 03:08:40;;;;;;;21.90;16.53;;;10.30;86.20;;;;;;5008981;28;20039;-79
2021/05/30 03:11:05;;;;;;;21.50;17.00;;;10.30;86.40;;;;;;5010400;28;20042;-78
2021/05/30 03:13:31;;;;;;;22.67;17.17;;;10.30;86.40;;;;;;4993257;28;20363;-80
2021/05/30 03:15:57;;;;;;;24.60;17.50;;;10.20;86.50;;;;;;5009578;28;20092;-75
2021/05/30 03:18:23;;;;;;;25.17;18.80;;;10.20;86.70;;;;;;4993263;28;20050;-78
2021/05/30 03:20:48;;;;;;;25.87;19.13;;;10.10;86.80;;;;;;5010172;28;20033;-78
2021/05/30 03:23:14;;;;;;;22.50;17.97;;;10.00;86.90;;;;;;5011067;28;20034;-78
2021/05/30 03:25:40;;;;;;;27.23;19.27;;;10.00;87.20;;;;;;5009027;28;20038;-77
2021/05/30 03:28:07;;;;;;;26.03;17.73;;;9.90;87.30;;;;;;5009638;28;20045;-77
2021/05/30 03:30:33;;;;;;;22.50;17.00;;;9.90;87.50;;;;;;4993360;28;20046;-80
2021/05/30 03:33:00;;;;;;;29.40;20.70;;;10.00;87.40;;;;;;5013872;28;20041;-77
2021/05/30 03:35:26;;;;;;;26.97;20.10;;;10.00;87.30;;;;;;4997151;28;20042;-78
2021/05/30 03:37:51;;;;;;;25.50;19.40;;;9.90;87.40;;;;;;5013063;28;20042;-77
2021/05/30 03:40:33;;;;;;;26.60;19.73;;;9.80;87.60;;;;;;5013941;28;20113;-77
2021/05/30 03:42:59;;;;;;;30.37;22.63;;;9.80;87.70;;;;;;5013096;28;20076;-78
2021/05/30 03:45:26;;;;;;;28.87;21.20;;;9.80;87.80;;;;;;5013356;28;20470;-77
2021/05/30 03:47:52;;;;;;;29.00;20.97;;;9.80;88.00;;;;;;5012477;28;20065;-77
2021/05/30 03:50:18;;;;;;;32.27;21.00;;;9.80;88.00;;;;;;5014249;28;20092;-78
2021/05/30 03:52:44;;;;;;;28.50;19.33;;;9.80;88.10;;;;;;4996147;28;20088;-77
2021/05/30 03:55:11;;;;;;;24.20;17.40;;;9.90;88.00;;;;;;5013394;28;20025;-77
2021/05/30 03:57:38;;;;;;;27.77;19.87;;;10.10;87.70;;;;;;4996276;28;20030;-81
2021/05/30 04:00:12;;;;;;;32.27;21.13;;;10.20;87.40;;;;;;5012887;28;20087;-77
2021/05/30 04:02:38;;;;;;;27.43;19.47;;;10.20;86.90;;;;;;5012662;28;20030;-79
2021/05/30 04:05:04;;;;;;;28.90;20.90;;;10.20;86.90;;;;;;4992421;28;20050;-78
2021/05/30 04:07:31;;;;;;;28.80;19.73;;;10.20;86.90;;;;;;4994299;28;20171;-77
2021/05/30 04:10:02;;;;;;;24.57;18.27;;;10.20;86.90;;;;;;5012009;28;20034;-78
2021/05/30 04:12:28;;;;;;;25.83;19.43;;;10.40;86.80;;;;;;4997453;28;20331;-77
2021/05/30 04:14:54;;;;;;;32.97;21.80;;;10.70;86.20;;;;;;4995729;28;20034;-79
2021/05/30 04:17:19;;;;;;;29.80;21.73;;;10.80;85.40;;;;;;5013729;28;20056;-77
2021/05/30 04:19:45;;;;;;;28.37;20.07;;;11.10;84.90;;;;;;4995797;28;20026;-78
2021/05/30 04:22:10;;;;;;;32.67;22.00;;;11.60;83.80;;;;;;5014152;28;20109;-78
2021/05/30 04:24:36;;;;;;;23.30;19.47;;;12.50;81.20;;;;;;5014038;28;20026;-78
2021/05/30 04:27:02;;;;;;;23.83;18.00;;;13.30;78.60;;;;;;5011556;28;20188;-77
2021/05/30 04:29:27;;;;;;;24.47;17.90;;;13.80;76.50;;;;;;5012492;28;20447;-78
2021/05/30 04:31:53;;;;;;;24.27;17.73;;;14.30;74.70;;;;;;5013009;28;20144;-78
2021/05/30 04:34:19;;;;;;;20.93;17.43;;;14.90;72.90;;;;;;4995640;28;20125;-78
2021/05/30 04:36:44;;;;;;;20.50;16.37;;;15.30;71.30;;;;;;4995784;28;20133;-80
2021/05/30 04:39:10;;;;;;;21.10;15.83;;;15.60;70.00;;;;;;4980162;28;20029;-79
2021/05/30 04:41:35;;;;;;;18.33;15.60;;;16.10;69.10;;;;;;4995722;28;20137;-78
2021/05/30 04:44:01;;;;;;;22.92;16.10;;;16.10;68.10;;;;;;5013405;28;20140;-78
2021/05/30 04:46:27;;;;;;;19.58;15.35;;;16.20;67.50;;;;;;4992633;28;20066;-79
2021/05/30 04:48:52;;;;;;;20.10;16.42;;;16.70;66.90;;;;;;4975912;28;20035;-77
2021/05/30 04:51:18;;;;;;;19.35;15.02;;;16.80;65.50;;;;;;4976930;28;20034;-78
2021/05/30 04:53:45;;;;;;;19.15;15.63;;;17.00;65.60;;;;;;4977847;28;20126;-80
2021/05/30 04:56:17;;;;;;;19.90;14.70;;;17.40;64.30;;;;;;4992605;28;20041;-78
2021/05/30 04:58:43;;;;;;;16.92;14.65;;;17.70;64.10;;;;;;4992775;28;20093;-77
2021/05/30 05:01:09;;;;;;;19.55;14.68;;;18.00;62.70;;;;;;5004854;28;20034;-77
2021/05/30 05:03:35;;;;;;;22.15;14.38;;;18.50;62.00;;;;;;4995497;28;20041;-77
2021/05/30 05:06:01;;;;;;;20.15;14.70;;;18.90;61.00;;;;;;5011474;28;20038;-77
2021/05/30 05:08:26;;;;;;;17.73;15.30;;;19.10;59.80;;;;;;5012936;28;20037;-76
2021/05/30 05:10:53;;;;;;;18.13;15.57;;;19.40;58.80;;;;;;5011384;28;20464;-78
2021/05/30 05:13:19;;;;;;;16.67;13.32;;;19.70;58.20;;;;;;5012157;28;20115;-77
2021/05/30 05:15:50;;;;;;;16.17;12.52;;;20.10;57.10;;;;;;5011945;28;20026;-76
2021/05/30 05:18:18;;;;;;;17.42;14.18;;;20.70;55.20;;;;;;5011954;28;20042;-75
2021/05/30 05:20:44;;;;;;;16.20;14.07;;;20.70;54.10;;;;;;5013375;28;20113;-77
2021/05/30 05:23:15;;;;;;;17.50;14.60;;;20.40;55.20;;;;;;5011168;28;20185;-77
2021/05/30 05:25:41;;;;;;;18.98;15.52;;;20.20;54.70;;;;;;4995395;28;20125;-76
2021/05/30 05:28:07;;;;;;;16.45;14.73;;;19.60;55.80;;;;;;5011856;28;20506;-79
2021/05/30 05:30:33;;;;;;;16.13;14.25;;;19.40;57.30;;;;;;5012248;28;20482;-78
2021/05/30 05:32:59;;;;;;;16.48;14.20;;;19.80;56.90;;;;;;4978708;28;20110;-77
2021/05/30 05:35:26;;;;;;;16.15;14.45;;;20.70;55.00;;;;;;5012765;28;20033;-79
2021/05/30 05:37:57;;;;;;;16.10;14.40;;;21.30;52.70;;;;;;5011914;28;20066;-80
2021/05/30 05:40:24;;;;;;;15.52;13.95;;;21.70;51.50;;;;;;5013257;28;20153;-77
2021/05/30 05:42:51;;;;;;;15.85;14.10;;;21.60;51.60;;;;;;4991473;28;20497;-78
2021/05/30 05:45:18;;;;;;;15.00;13.38;;;21.90;51.10;;;;;;5009502;28;20042;-79
2021/05/30 05:47:44;;;;;;;14.60;12.00;;;22.00;51.40;;;;;;5013751;28;20109;-79
2021/05/30 05:50:12;;;;;;;15.73;14.02;;;22.30;50.40;;;;;;5013900;28;20026;-77
2021/05/30 05:52:39;;;;;;;15.85;13.32;;;22.50;49.60;;;;;;4993714;28;20038;-78
2021/05/30 05:55:06;;;;;;;16.13;14.32;;;22.40;49.30;;;;;;4992600;28;20042;-76
2021/05/30 05:57:31;;;;;;;15.65;12.70;;;22.00;49.50;;;;;;5011547;28;20044;-78
2021/05/30 05:59:57;;;;;;;15.50;12.10;;;22.10;50.70;;;;;;4992672;28;20038;-78
2021/05/30 06:02:23;;;;;;;14.30;12.80;;;23.00;49.50;;;;;;4993023;28;20030;-78
2021/05/30 06:04:48;;;;;;;15.68;13.90;;;23.70;47.10;;;;;;4991159;28;20045;-77
2021/05/30 06:07:14;;;;;;;16.13;12.35;;;23.90;46.40;;;;;;5010347;28;20517;-77
2021/05/30 06:09:40;;;;;;;14.95;13.38;;;23.80;46.40;;;;;;5010896;28;20066;-78
2021/05/30 06:12:06;;;;;;;16.85;13.00;;;23.80;45.60;;;;;;5008997;28;20045;-76
2021/05/30 06:14:32;;;;;;;14.98;13.48;;;23.80;46.50;;;;;;5010777;28;20084;-76
2021/05/30 06:16:57;;;;;;;18.70;14.75;;;23.60;46.20;;;;;;5010001;28;20074;-81
2021/05/30 06:19:25;;;;;;;14.20;11.85;;;22.60;48.20;;;;;;5010785;28;20030;-77
2021/05/30 06:21:51;;;;;;;13.55;12.00;;;22.40;49.60;;;;;;4995354;28;20026;-78
2021/05/30 06:24:17;;;;;;;17.02;14.15;;;23.10;48.80;;;;;;5012058;28;20483;-77
2021/05/30 06:26:43;;;;;;;14.20;11.93;;;23.50;47.00;;;;;;5003458;28;20123;-78
2021/05/30 06:29:08;;;;;;;15.25;13.68;;;23.50;47.40;;;;;;4982012;28;20046;-76
2021/05/30 06:31:34;;;;;;;15.20;13.63;;;24.30;46.10;;;;;;4999257;28;20014;-79
2021/05/30 06:34:00;;;;;;;17.02;15.05;;;24.20;45.30;;;;;;4989591;28;20084;-80
2021/05/30 06:36:26;;;;;;;21.25;17.80;;;24.10;45.70;;;;;;5020141;28;20352;-78
2021/05/30 06:38:52;;;;;;;19.63;17.48;;;23.90;45.70;;;;;;5026404;28;20124;-77
2021/05/30 06:41:18;;;;;;;18.48;16.50;;;23.80;46.10;;;;;;5008652;28;20644;-78
2021/05/30 06:43:46;;;;;;;17.45;14.93;;;24.00;46.60;;;;;;5008218;28;20393;-78
2021/05/30 06:46:12;;;;;;;16.00;14.30;;;24.10;46.20;;;;;;5001463;28;20081;-76
2021/05/30 06:48:37;;;;;;;19.35;16.27;;;23.90;46.20;;;;;;4999233;28;20034;-76
2021/05/30 06:51:13;;;;;;;19.27;17.27;;;24.10;45.50;;;;;;5000981;28;20033;-77
2021/05/30 06:53:39;;;;;;;19.27;16.88;;;23.80;46.80;;;;;;5002519;28;20034;-77
2021/05/30 06:56:05;;;;;;;16.95;15.07;;;24.10;46.30;;;;;;4989393;28;20459;-76
2021/05/30 06:58:31;;;;;;;17.17;14.88;;;24.70;45.40;;;;;;5000649;28;20165;-77
2021/05/30 07:00:57;;;;;;;16.17;14.63;;;24.90;44.20;;;;;;4996207;28;20026;-79
2021/05/30 07:03:23;;;;;;;17.00;15.15;;;24.80;44.80;;;;;;4986975;28;20037;-76
2021/05/30 07:05:49;;;;;;;17.42;15.55;;;24.60;44.40;;;;;;5010609;28;20772;-76
2021/05/30 07:08:14;;;;;;;16.65;15.02;;;25.00;45.40;;;;;;5008483;28;20375;-75
2021/05/30 07:10:40;;;;;;;15.98;14.10;;;25.60;43.90;;;;;;4986227;28;20065;-78
2021/05/30 07:13:05;;;;;;;16.42;14.73;;;26.20;43.70;;;;;;4992498;28;20034;-79
2021/05/30 07:15:31;;;;;;;16.58;13.68;;;25.80;42.20;;;;;;4993624;28;20049;-78
2021/05/30 07:17:57;;;;;;;14.88;13.38;;;25.10;42.70;;;;;;4993425;28;20038;-75
2021/05/30 07:20:22;;;;;;;16.15;14.45;;;24.80;45.20;;;;;;5003499;28;20820;-76
2021/05/30 07:22:48;;;;;;;15.07;13.43;;;24.90;43.60;;;;;;4995751;28;20438;-78
2021/05/30 07:25:14;;;;;;;15.32;13.70;;;24.90;43.00;;;;;;5008695;28;20092;-75
2021/05/30 07:27:40;;;;;;;13.85;12.30;;;24.40;43.50;;;;;;5008063;28;20368;-76
2021/05/30 07:30:07;;;;;;;13.55;12.13;;;24.00;45.20;;;;;;4990154;28;20123;-79
2021/05/30 07:32:33;;;;;;;15.38;12.90;;;24.00;44.70;;;;;;4996371;28;20095;-78
2021/05/30 07:34:59;;;;;;;12.60;11.40;;;24.50;43.40;;;;;;5008989;28;20036;-76
2021/05/30 07:37:25;;;;;;;11.85;10.65;;;24.60;43.10;;;;;;5006686;28;20222;-77
2021/05/30 07:39:50;;;;;;;13.20;11.73;;;24.50;43.20;;;;;;4990821;28;20184;-78
2021/05/30 07:42:16;;;;;;;12.45;11.20;;;24.90;43.40;;;;;;4991009;28;20034;-80
2021/05/30 07:44:42;;;;;;;12.65;11.35;;;25.30;42.40;;;;;;5006580;28;20034;-77
2021/05/30 07:47:08;;;;;;;13.60;11.25;;;25.80;42.50;;;;;;4989655;28;20543;-80
2021/05/30 07:49:34;;;;;;;11.77;10.57;;;25.90;40.50;;;;;;5005794;28;20041;-77
2021/05/30 07:52:01;;;;;;;11.63;10.20;;;25.90;40.60;;;;;;5006085;28;20465;-76
2021/05/30 07:54:27;;;;;;;12.88;11.57;;;25.80;42.00;;;;;;5004547;28;20045;-76
2021/05/30 07:56:53;;;;;;;11.50;10.40;;;25.90;40.50;;;;;;5006868;28;20112;-76
2021/05/30 07:59:19;;;;;;;10.68;9.68;;;25.20;41.40;;;;;;5008210;28;20152;-76
2021/05/30 08:01:46;;;;;;;11.38;10.27;;;24.70;40.10;;;;;;5006757;28;20171;-81
2021/05/30 08:04:12;;;;;;;11.77;10.57;;;23.80;42.40;;;;;;5024451;28;20038;-81
2021/05/30 08:06:37;;;;;;;10.45;9.45;;;23.20;42.90;;;;;;5026962;28;20069;-75
2021/05/30 08:09:04;;;;;;;13.40;11.35;;;22.80;45.20;;;;;;5025458;28;20026;-77
2021/05/30 08:11:29;;;;;;;9.90;8.90;;;23.80;44.70;;;;;;5022961;28;20188;-80
2021/05/30 08:13:56;;;;;;;14.18;10.95;;;23.90;43.40;;;;;;5028541;28;20042;-77
2021/05/30 08:16:22;;;;;;;11.38;9.88;;;23.70;43.00;;;;;;5021139;28;20026;-78
2021/05/30 08:18:48;;;;;;;10.77;9.68;;;24.20;42.70;;;;;;5009126;28;20037;-78
2021/05/30 08:21:14;;;;;;;10.38;8.68;;;24.50;42.20;;;;;;5023711;28;20026;-78
2021/05/30 08:23:42;;;;;;;11.60;10.40;;;24.50;43.20;;;;;;5005333;28;20034;-76
2021/05/30 08:26:09;;;;;;;9.50;8.35;;;25.00;41.40;;;;;;5017258;28;20030;-77
2021/05/30 08:28:35;;;;;;;10.73;8.52;;;24.90;41.80;;;;;;4998257;28;20033;-78
2021/05/30 08:31:01;;;;;;;9.73;8.80;;;25.50;41.20;;;;;;4998882;28;20046;-78
2021/05/30 08:33:28;;;;;;;8.80;7.90;;;25.40;40.70;;;;;;5016145;28;20049;-75
2021/05/30 08:35:53;;;;;;;8.00;7.30;;;25.30;40.40;;;;;;5014857;28;20022;-78
2021/05/30 08:38:20;;;;;;;8.25;7.20;;;25.40;39.70;;;;;;5014559;28;20200;-78
2021/05/30 08:40:47;;;;;;;5.28;4.78;;;25.70;38.90;;;;;;5015773;28;20080;-75
2021/05/30 08:43:15;;;;;;;6.18;5.55;;;24.80;39.40;;;;;;5014369;28;20021;-78
2021/05/30 08:45:40;;;;;;;5.75;5.22;;;25.10;38.00;;;;;;5014790;28;20470;-78
2021/05/30 08:48:06;;;;;;;7.63;5.97;;;24.90;38.40;;;;;;4998275;28;20033;-78
2021/05/30 08:50:32;;;;;;;4.90;4.28;;;25.00;38.10;;;;;;4969420;28;20034;-78
2021/05/30 08:52:58;;;;;;;4.70;3.60;;;24.90;39.10;;;;;;4994532;28;20388;-78
2021/05/30 08:55:24;;;;;;;5.47;4.43;;;25.40;38.90;;;;;;5012329;28;20030;-76
2021/05/30 08:57:49;;;;;;;5.45;4.55;;;25.60;36.40;;;;;;5011812;28;20037;-76
2021/05/30 09:00:21;;;;;;;5.50;5.00;;;24.90;36.80;;;;;;5012452;28;20041;-79
2021/05/30 09:02:47;;;;;;;6.50;5.85;;;24.40;38.00;;;;;;4995160;28;20025;-77
2021/05/30 09:05:13;;;;;;;5.97;4.68;;;23.80;39.50;;;;;;5012402;28;20488;-78
2021/05/30 09:07:44;;;;;;;4.90;4.40;;;24.40;41.20;;;;;;4987518;28;20042;-76
2021/05/30 09:10:22;;;;;;;6.03;4.00;;;25.20;37.80;;;;;;4994156;28;20023;-76
2021/05/30 09:13:06;;;;;;;4.38;3.85;;;25.60;37.00;;;;;;5004837;28;20026;-77
2021/05/30 09:15:54;;;;;;;4.90;4.15;;;25.40;36.50;;;;;;4992439;28;20038;-78
2021/05/30 09:18:27;;;;;;;5.00;4.10;;;24.60;37.30;;;;;;5000347;28;20085;-79
2021/05/30 09:20:54;;;;;;;4.68;4.28;;;24.70;37.50;;;;;;5001450;28;20097;-80
2021/05/30 09:23:41;;;;;;;6.13;4.45;;;24.70;36.80;;;;;;4996926;28;20032;-79
2021/05/30 09:26:23;;;;;;;4.10;3.70;;;25.00;37.70;;;;;;5005766;28;20026;-77
2021/05/30 09:29:07;;;;;;;4.55;4.10;;;25.10;36.90;;;;;;4999062;28;20034;-78
2021/05/30 09:31:53;;;;;;;5.15;4.55;;;25.10;37.30;;;;;;5002191;28;20433;-78
2021/05/30 09:34:31;;;;;;;3.78;3.38;;;25.60;36.60;;;;;;5006075;28;20101;-80
2021/05/30 09:36:57;;;;;;;5.60;3.72;;;25.30;34.50;;;;;;5005263;28;20034;-79
2021/05/30 09:39:46;;;;;;;4.45;3.55;;;24.80;35.70;;;;;;5005703;28;20026;-82
2021/05/30 09:42:25;;;;;;;5.00;3.97;;;24.90;36.70;;;;;;4997909;28;20053;-74
2021/05/30 09:44:59;;;;;;;4.65;3.78;;;25.00;35.90;;;;;;5002873;28;20050;-77
2021/05/30 09:47:39;;;;;;;4.43;3.00;;;24.70;36.60;;;;;;5002220;28;20528;-77
2021/05/30 09:50:17;;;;;;;4.80;4.25;;;24.80;37.80;;;;;;5002420;28;20050;-77
2021/05/30 09:52:47;;;;;;;5.45;3.83;;;25.30;35.80;;;;;;5001407;28;20138;-76
2021/05/30 09:55:13;;;;;;;3.90;3.20;;;25.20;35.30;;;;;;5005154;28;20018;-77
2021/05/30 09:57:39;;;;;;;3.58;2.88;;;24.50;36.40;;;;;;5002901;28;20049;-76
2021/05/30 10:00:06;;;;;;;3.38;2.75;;;24.80;36.80;;;;;;5001446;28;20117;-77
2021/05/30 10:02:32;;;;;;;5.75;3.30;;;25.20;36.10;;;;;;4992956;28;20042;-76
2021/05/30 10:04:59;;;;;;;4.18;3.63;;;25.50;34.80;;;;;;5009424;28;20386;-77
2021/05/30 10:07:26;;;;;;;4.93;3.50;;;25.20;34.80;;;;;;5015426;28;20065;-78
2021/05/30 10:09:52;;;;;;;3.20;2.47;;;24.60;35.70;;;;;;5012299;28;20101;-77
2021/05/30 10:12:19;;;;;;;8.98;3.20;;;24.50;36.50;;;;;;5029160;28;20037;-77
2021/05/30 10:14:44;;;;;;;3.60;2.70;;;24.40;37.00;;;;;;5025822;28;20041;-78
2021/05/30 10:17:12;;;;;;;2.72;1.70;;;24.40;36.20;;;;;;5033254;28;20042;-78
2021/05/30 10:19:42;;;;;;;2.97;1.70;;;24.20;34.30;;;;;;5033599;28;20010;-74
2021/05/30 10:22:09;;;;;;;4.43;2.15;;;23.90;34.60;;;;;;5034383;28;20056;-76
2021/05/30 10:24:40;;;;;;;6.05;2.78;;;24.30;34.80;;;;;;5032804;28;20014;-80
2021/05/30 10:27:15;;;;;;;3.13;2.30;;;24.30;34.90;;;;;;5034090;28;20006;-78
2021/05/30 10:29:41;;;;;;;3.17;1.75;;;24.30;33.80;;;;;;5032799;28;20068;-75
2021/05/30 10:32:19;;;;;;;4.28;2.10;;;24.50;35.20;;;;;;5020739;28;20030;-76
2021/05/30 10:35:09;;;;;;;2.58;2.35;;;25.40;34.70;;;;;;4995168;28;20029;-77
2021/05/30 10:37:54;;;;;;;2.40;1.60;;;25.60;32.80;;;;;;5013458;28;20030;-80
2021/05/30 10:40:23;;;;;;;13.32;3.00;;;25.00;33.10;;;;;;5004469;28;20022;-76
2021/05/30 10:43:29;;;;;;;3.33;2.38;;;24.70;33.60;;;;;;5013912;28;20481;-79
2021/05/30 10:45:55;;;;;;;2.78;1.85;;;25.00;33.00;;;;;;4953695;29;20039;-77
2021/05/30 10:48:22;;;;;;;3.22;1.77;;;25.00;33.00;;;;;;5001163;28;20497;-80
2021/05/30 10:53:35;;;;;;;3.55;2.60;;;24.40;34.60;;;;;;5014981;28;20038;-77
2021/05/30 10:56:31;;;;;;;2.83;2.05;;;23.80;35.00;;;;;;5011834;28;20064;-75
2021/05/30 10:59:09;;;;;;;2.45;1.42;;;24.40;36.10;;;;;;5010837;28;20092;-75
2021/05/30 11:01:41;;;;;;;3.58;2.08;;;25.30;35.40;;;;;;5010914;28;20030;-78
2021/05/30 11:04:25;;;;;;;2.00;1.42;;;25.40;32.60;;;;;;5011567;28;20026;-78
2021/05/30 11:06:51;;;;;;;2.15;1.20;;;25.20;33.00;;;;;;5009935;28;20382;-78
2021/05/30 11:09:17;;;;;;;1.50;1.10;;;25.40;33.80;;;;;;5012029;28;20037;-76
2021/05/30 11:11:43;;;;;;;2.30;0.93;;;25.50;31.80;;;;;;5009684;28;20030;-77
2021/05/30 11:14:11;;;;;;;1.70;1.00;;;25.20;31.00;;;;;;5011036;28;20042;-78
2021/05/30 11:16:45;;;;;;;1.70;0.90;;;24.70;31.40;;;;;;5010800;28;20157;-80
2021/05/30 11:19:15;;;;;;;1.50;1.10;;;24.80;31.50;;;;;;5010559;28;20108;-77
2021/05/30 11:21:44;;;;;;;2.53;1.52;;;24.50;31.40;;;;;;5009886;28;20382;-78
2021/05/30 11:24:25;;;;;;;1.45;1.10;;;24.40;32.50;;;;;;5010937;28;20026;-77
2021/05/30 11:27:04;;;;;;;1.90;1.10;;;24.40;32.20;;;;;;5012140;28;20030;-77
2021/05/30 11:29:33;;;;;;;2.45;1.60;;;24.60;32.10;;;;;;5010314;28;20058;-78
2021/05/30 11:32:01;;;;;;;2.08;1.70;;;24.80;33.40;;;;;;5011851;28;20026;-78
2021/05/30 11:34:32;;;;;;;1.98;1.20;;;24.80;33.10;;;;;;5010397;28;20475;-76
2021/05/30 11:37:10;;;;;;;2.97;0.83;;;24.60;34.00;;;;;;5009739;28;20022;-77
2021/05/30 11:39:43;;;;;;;3.58;0.70;;;25.10;31.60;;;;;;4991228;28;20161;-75
2021/05/30 11:42:09;;;;;;;2.25;0.90;;;24.90;30.40;;;;;;4988173;28;20026;-77
2021/05/30 11:44:36;;;;;;;2.10;0.80;;;24.70;30.80;;;;;;5010678;28;20079;-80
2021/05/30 11:47:09;;;;;;;2.30;0.90;;;25.30;32.10;;;;;;4992802;28;20245;-78
2021/05/30 11:49:40;;;;;;;2.13;0.80;;;25.60;30.60;;;;;;4978471;28;20030;-77
2021/05/30 11:52:15;;;;;;;1.55;0.82;;;25.30;30.50;;;;;;5011516;28;20113;-77
2021/05/30 11:54:44;;;;;;;1.85;1.15;;;24.80;31.50;;;;;;5013292;28;20026;-78
2021/05/30 11:57:14;;;;;;;1.95;0.90;;;24.20;31.00;;;;;;5013924;28;20378;-77
2021/05/30 11:59:43;;;;;;;1.83;0.88;;;24.30;31.60;;;;;;5013389;28;20041;-80
2021/05/30 12:02:10;;;;;;;1.60;0.95;;;24.40;31.10;;;;;;5015093;28;20753;-78
2021/05/30 12:04:53;;;;;;;1.70;1.00;;;24.50;31.40;;;;;;5016898;28;20026;-77
2021/05/30 12:07:19;;;;;;;2.67;1.00;;;24.50;30.70;;;;;;5019265;28;20029;-78
2021/05/30 12:09:45;;;;;;;1.60;0.80;;;24.20;31.30;;;;;;5017752;28;20561;-79
2021/05/30 12:12:37;;;;;;;2.17;0.80;;;23.80;31.40;;;;;;5013958;28;20112;-77
2021/05/30 12:15:22;;;;;;;1.48;0.70;;;24.00;31.30;;;;;;5013026;28;20141;-77
2021/05/30 12:17:51;;;;;;;1.40;0.75;;;23.70;32.30;;;;;;5012497;28;20042;-77
2021/05/30 12:20:22;;;;;;;1.40;0.70;;;23.80;31.60;;;;;;5013313;28;20068;-76
2021/05/30 12:22:48;;;;;;;2.17;0.90;;;24.00;31.70;;;;;;5012668;28;20029;-79
2021/05/30 12:25:15;;;;;;;1.45;0.90;;;24.30;31.60;;;;;;5012922;28;20480;-77
2021/05/30 12:27:41;;;;;;;1.60;0.70;;;24.20;32.00;;;;;;5014314;28;20034;-77
2021/05/30 12:30:08;;;;;;;3.05;0.80;;;23.90;31.60;;;;;;5013743;28;20048;-80
2021/05/30 12:32:33;;;;;;;1.58;0.80;;;23.60;32.80;;;;;;5014546;28;20034;-77
2021/05/30 12:34:59;;;;;;;1.88;1.08;;;23.70;32.90;;;;;;5011592;28;20033;-77
2021/05/30 12:37:42;;;;;;;1.52;0.70;;;23.60;33.20;;;;;;4996368;28;20498;-76
2021/05/30 12:40:10;;;;;;;2.85;0.75;;;23.80;32.50;;;;;;5013256;28;20030;-78
2021/05/30 12:42:38;;;;;;;2.42;0.60;;;24.30;31.30;;;;;;5011996;28;20119;-76